sensor_id;sensor_type;location;lat;lon;timestamp;temperature;humidity
23713;DHT22;12035;49.978;8.298;2023-07-31T00:04:11;22.60;51.30
23713;DHT22;12035;49.978;8.298;2023-07-31T00:09:10;22.60;51.40
23713;DHT22;12035;49.978;8.298;2023-07-31T00:14:07;22.50;51.50
23713;DHT22;12035;49.978;8.298;2023-07-31T00:19:04;22.50;51.50
23713;DHT22;12035;49.978;8.298;2023-07-31T00:24:01;22.40;51.50
23713;DHT22;12035;49.978;8.298;2023-07-31T00:29:00;22.50;51.50
23713;DHT22;12035;49.978;8.298;2023-07-31T00:33:57;22.50;51.40
23713;DHT22;12035;49.978;8.298;2023-07-31T00:38:54;22.40;51.40
23713;DHT22;12035;49.978;8.298;2023-07-31T00:43:51;22.40;51.60
23713;DHT22;12035;49.978;8.298;2023-07-31T00:48:50;22.40;51.60
23713;DHT22;12035;49.978;8.298;2023-07-31T00:53:47;22.40;51.70
23713;DHT22;12035;49.978;8.298;2023-07-31T00:58:44;22.40;51.60
23713;DHT22;12035;49.978;8.298;2023-07-31T01:03:42;22.40;51.60
23713;DHT22;12035;49.978;8.298;2023-07-31T01:08:44;22.40;51.60
23713;DHT22;12035;49.978;8.298;2023-07-31T01:13:46;22.40;51.60
23713;DHT22;12035;49.978;8.298;2023-07-31T01:18:43;22.40;51.60
23713;DHT22;12035;49.978;8.298;2023-07-31T01:23:57;22.40;51.60
23713;DHT22;12035;49.978;8.298;2023-07-31T01:29:12;22.40;51.60
23713;DHT22;12035;49.978;8.298;2023-07-31T01:34:13;22.40;51.60
23713;DHT22;12035;49.978;8.298;2023-07-31T01:39:11;22.40;51.30
23713;DHT22;12035;49.978;8.298;2023-07-31T01:44:09;22.40;51.50
23713;DHT22;12035;49.978;8.298;2023-07-31T01:49:06;22.40;51.60
23713;DHT22;12035;49.978;8.298;2023-07-31T01:54:03;22.30;51.70
23713;DHT22;12035;49.978;8.298;2023-07-31T01:59:00;22.30;51.80
23713;DHT22;12035;49.978;8.298;2023-07-31T02:03:59;22.30;51.90
23713;DHT22;12035;49.978;8.298;2023-07-31T02:08:56;22.30;52.00
23713;DHT22;12035;49.978;8.298;2023-07-31T02:13:54;22.20;52.10
23713;DHT22;12035;49.978;8.298;2023-07-31T02:18:51;22.20;52.30
23713;DHT22;12035;49.978;8.298;2023-07-31T02:23:49;22.10;52.40
23713;DHT22;12035;49.978;8.298;2023-07-31T02:28:46;22.00;52.50
23713;DHT22;12035;49.978;8.298;2023-07-31T02:33:43;22.00;52.60
23713;DHT22;12035;49.978;8.298;2023-07-31T02:38:40;22.00;52.80
23713;DHT22;12035;49.978;8.298;2023-07-31T02:43:39;22.00;52.90
23713;DHT22;12035;49.978;8.298;2023-07-31T02:48:36;21.90;53.00
23713;DHT22;12035;49.978;8.298;2023-07-31T02:53:33;21.90;53.10
23713;DHT22;12035;49.978;8.298;2023-07-31T02:58:30;21.90;53.10
23713;DHT22;12035;49.978;8.298;2023-07-31T03:03:28;22.00;53.20
23713;DHT22;12035;49.978;8.298;2023-07-31T03:08:25;22.00;53.40
23713;DHT22;12035;49.978;8.298;2023-07-31T03:13:22;22.00;53.40
23713;DHT22;12035;49.978;8.298;2023-07-31T03:18:20;22.00;53.50
23713;DHT22;12035;49.978;8.298;2023-07-31T03:23:18;22.00;53.60
23713;DHT22;12035;49.978;8.298;2023-07-31T03:28:15;22.00;53.60
23713;DHT22;12035;49.978;8.298;2023-07-31T03:33:12;22.00;53.60
23713;DHT22;12035;49.978;8.298;2023-07-31T03:38:09;21.90;53.70
23713;DHT22;12035;49.978;8.298;2023-07-31T03:43:08;21.90;53.70
23713;DHT22;12035;49.978;8.298;2023-07-31T03:48:05;21.80;54.00
23713;DHT22;12035;49.978;8.298;2023-07-31T03:53:03;21.80;54.20
23713;DHT22;12035;49.978;8.298;2023-07-31T03:58:00;21.80;55.00
23713;DHT22;12035;49.978;8.298;2023-07-31T04:02:59;21.80;54.60
23713;DHT22;12035;49.978;8.298;2023-07-31T04:07:56;21.80;54.60
23713;DHT22;12035;49.978;8.298;2023-07-31T04:12:53;21.80;54.60
23713;DHT22;12035;49.978;8.298;2023-07-31T04:17:50;21.80;54.60
23713;DHT22;12035;49.978;8.298;2023-07-31T04:22:48;21.80;54.60
23713;DHT22;12035;49.978;8.298;2023-07-31T04:27:45;21.80;54.70
23713;DHT22;12035;49.978;8.298;2023-07-31T04:32:43;21.80;54.60
23713;DHT22;12035;49.978;8.298;2023-07-31T04:37:40;21.80;54.70
23713;DHT22;12035;49.978;8.298;2023-07-31T04:42:38;21.80;54.80
23713;DHT22;12035;49.978;8.298;2023-07-31T04:47:35;21.80;55.00
23713;DHT22;12035;49.978;8.298;2023-07-31T04:52:32;21.80;55.00
23713;DHT22;12035;49.978;8.298;2023-07-31T04:57:29;21.80;55.10
23713;DHT22;12035;49.978;8.298;2023-07-31T05:02:28;21.80;55.30
23713;DHT22;12035;49.978;8.298;2023-07-31T05:07:25;21.80;55.50
23713;DHT22;12035;49.978;8.298;2023-07-31T05:12:22;21.80;55.60
23713;DHT22;12035;49.978;8.298;2023-07-31T05:17:19;21.80;55.70
23713;DHT22;12035;49.978;8.298;2023-07-31T05:22:17;21.80;55.50
23713;DHT22;12035;49.978;8.298;2023-07-31T05:27:14;21.80;55.30
23713;DHT22;12035;49.978;8.298;2023-07-31T05:32:14;21.80;55.20
23713;DHT22;12035;49.978;8.298;2023-07-31T05:37:11;21.80;55.10
23713;DHT22;12035;49.978;8.298;2023-07-31T05:42:09;21.80;55.10
23713;DHT22;12035;49.978;8.298;2023-07-31T05:47:06;21.80;55.00
23713;DHT22;12035;49.978;8.298;2023-07-31T05:52:04;21.80;55.10
23713;DHT22;12035;49.978;8.298;2023-07-31T05:57:02;21.80;55.10
23713;DHT22;12035;49.978;8.298;2023-07-31T06:02:00;21.80;55.10
23713;DHT22;12035;49.978;8.298;2023-07-31T06:06:57;21.80;55.30
23713;DHT22;12035;49.978;8.298;2023-07-31T06:11:54;21.90;55.40
23713;DHT22;12035;49.978;8.298;2023-07-31T06:16:51;22.10;55.70
23713;DHT22;12035;49.978;8.298;2023-07-31T06:21:50;22.40;55.80
23713;DHT22;12035;49.978;8.298;2023-07-31T06:26:47;22.70;55.10
23713;DHT22;12035;49.978;8.298;2023-07-31T06:31:46;23.00;54.60
23713;DHT22;12035;49.978;8.298;2023-07-31T06:36:43;23.20;54.10
23713;DHT22;12035;49.978;8.298;2023-07-31T06:41:42;23.40;53.90
23713;DHT22;12035;49.978;8.298;2023-07-31T06:46:39;23.70;54.20
23713;DHT22;12035;49.978;8.298;2023-07-31T06:51:36;24.20;54.00
23713;DHT22;12035;49.978;8.298;2023-07-31T06:56:34;24.60;52.60
23713;DHT22;12035;49.978;8.298;2023-07-31T07:01:32;24.80;51.90
23713;DHT22;12035;49.978;8.298;2023-07-31T07:06:29;24.80;51.10
23713;DHT22;12035;49.978;8.298;2023-07-31T07:11:26;24.60;51.10
23713;DHT22;12035;49.978;8.298;2023-07-31T07:16:23;24.40;51.40
23713;DHT22;12035;49.978;8.298;2023-07-31T07:21:22;24.50;52.50
23713;DHT22;12035;49.978;8.298;2023-07-31T07:26:19;24.90;52.00
23713;DHT22;12035;49.978;8.298;2023-07-31T07:31:16;25.10;51.40
23713;DHT22;12035;49.978;8.298;2023-07-31T07:36:13;25.30;51.30
23713;DHT22;12035;49.978;8.298;2023-07-31T07:41:12;25.50;51.00
23713;DHT22;12035;49.978;8.298;2023-07-31T07:46:09;25.60;50.30
23713;DHT22;12035;49.978;8.298;2023-07-31T07:51:06;25.60;50.40
23713;DHT22;12035;49.978;8.298;2023-07-31T07:56:03;25.80;51.00
23713;DHT22;12035;49.978;8.298;2023-07-31T08:01:01;26.10;49.90
23713;DHT22;12035;49.978;8.298;2023-07-31T08:05:59;26.10;49.10
23713;DHT22;12035;49.978;8.298;2023-07-31T08:10:56;26.00;49.10
23713;DHT22;12035;49.978;8.298;2023-07-31T08:15:53;25.70;49.20
23713;DHT22;12035;49.978;8.298;2023-07-31T08:20:51;25.50;49.80
23713;DHT22;12035;49.978;8.298;2023-07-31T08:25:48;25.30;49.80
23713;DHT22;12035;49.978;8.298;2023-07-31T08:30:46;25.10;50.00
23713;DHT22;12035;49.978;8.298;2023-07-31T08:35:43;24.80;50.30
23713;DHT22;12035;49.978;8.298;2023-07-31T08:40:41;24.70;50.70
23713;DHT22;12035;49.978;8.298;2023-07-31T08:45:38;24.60;51.20
23713;DHT22;12035;49.978;8.298;2023-07-31T08:50:38;24.60;51.50
23713;DHT22;12035;49.978;8.298;2023-07-31T08:55:36;24.50;51.60
23713;DHT22;12035;49.978;8.298;2023-07-31T09:00:36;24.50;52.50
23713;DHT22;12035;49.978;8.298;2023-07-31T09:05:33;24.40;53.30
23713;DHT22;12035;49.978;8.298;2023-07-31T09:10:35;24.40;52.70
23713;DHT22;12035;49.978;8.298;2023-07-31T09:15:33;24.30;52.80
23713;DHT22;12035;49.978;8.298;2023-07-31T09:20:32;24.30;52.60
23713;DHT22;12035;49.978;8.298;2023-07-31T09:25:29;24.30;52.20
23713;DHT22;12035;49.978;8.298;2023-07-31T09:30:26;24.40;52.30
23713;DHT22;12035;49.978;8.298;2023-07-31T09:35:28;24.60;51.50
23713;DHT22;12035;49.978;8.298;2023-07-31T09:40:28;24.70;51.10
23713;DHT22;12035;49.978;8.298;2023-07-31T09:45:26;24.70;51.10
23713;DHT22;12035;49.978;8.298;2023-07-31T09:50:24;24.70;50.90
23713;DHT22;12035;49.978;8.298;2023-07-31T09:55:21;24.80;50.90
23713;DHT22;12035;49.978;8.298;2023-07-31T10:00:20;24.80;50.70
23713;DHT22;12035;49.978;8.298;2023-07-31T10:05:21;24.90;50.70
23713;DHT22;12035;49.978;8.298;2023-07-31T10:10:20;24.90;50.50
23713;DHT22;12035;49.978;8.298;2023-07-31T10:15:19;24.90;50.60
23713;DHT22;12035;49.978;8.298;2023-07-31T10:20:17;25.00;50.20
23713;DHT22;12035;49.978;8.298;2023-07-31T10:25:15;25.00;50.20
23713;DHT22;12035;49.978;8.298;2023-07-31T10:30:15;25.10;49.90
23713;DHT22;12035;49.978;8.298;2023-07-31T10:35:16;25.30;49.70
23713;DHT22;12035;49.978;8.298;2023-07-31T10:40:16;25.40;49.60
23713;DHT22;12035;49.978;8.298;2023-07-31T10:45:24;25.50;49.40
23713;DHT22;12035;49.978;8.298;2023-07-31T10:50:24;25.60;48.70
23713;DHT22;12035;49.978;8.298;2023-07-31T10:55:26;25.60;48.40
23713;DHT22;12035;49.978;8.298;2023-07-31T11:00:26;25.60;48.40
23713;DHT22;12035;49.978;8.298;2023-07-31T11:11:06;25.70;48.50
23713;DHT22;12035;49.978;8.298;2023-07-31T11:16:04;25.80;48.30
23713;DHT22;12035;49.978;8.298;2023-07-31T11:21:03;25.90;48.50
23713;DHT22;12035;49.978;8.298;2023-07-31T11:26:00;26.00;48.20
23713;DHT22;12035;49.978;8.298;2023-07-31T11:30:58;26.00;48.00
23713;DHT22;12035;49.978;8.298;2023-07-31T11:35:55;26.10;47.90
23713;DHT22;12035;49.978;8.298;2023-07-31T11:40:55;26.10;47.70
23713;DHT22;12035;49.978;8.298;2023-07-31T11:45:54;26.10;47.60
23713;DHT22;12035;49.978;8.298;2023-07-31T11:50:53;26.10;47.90
23713;DHT22;12035;49.978;8.298;2023-07-31T11:55:52;26.10;47.80
23713;DHT22;12035;49.978;8.298;2023-07-31T12:00:49;26.20;48.00
23713;DHT22;12035;49.978;8.298;2023-07-31T12:05:47;26.30;47.90
23713;DHT22;12035;49.978;8.298;2023-07-31T12:10:44;26.40;47.50
23713;DHT22;12035;49.978;8.298;2023-07-31T12:15:44;26.40;47.50
23713;DHT22;12035;49.978;8.298;2023-07-31T12:20:43;26.40;46.70
23713;DHT22;12035;49.978;8.298;2023-07-31T12:25:41;26.40;46.60
23713;DHT22;12035;49.978;8.298;2023-07-31T12:30:39;26.40;46.60
23713;DHT22;12035;49.978;8.298;2023-07-31T12:35:41;26.40;46.80
23713;DHT22;12035;49.978;8.298;2023-07-31T12:40:42;26.40;47.10
23713;DHT22;12035;49.978;8.298;2023-07-31T12:45:39;26.40;47.00
23713;DHT22;12035;49.978;8.298;2023-07-31T12:50:36;26.50;46.90
23713;DHT22;12035;49.978;8.298;2023-07-31T12:55:35;26.60;46.80
23713;DHT22;12035;49.978;8.298;2023-07-31T13:00:32;26.60;46.90
23713;DHT22;12035;49.978;8.298;2023-07-31T13:05:29;26.70;47.00
23713;DHT22;12035;49.978;8.298;2023-07-31T13:10:27;26.70;47.00
23713;DHT22;12035;49.978;8.298;2023-07-31T13:15:26;26.80;47.10
23713;DHT22;12035;49.978;8.298;2023-07-31T13:20:23;26.80;47.20
23713;DHT22;12035;49.978;8.298;2023-07-31T13:25:20;26.90;46.90
23713;DHT22;12035;49.978;8.298;2023-07-31T13:30:17;27.00;46.90
23713;DHT22;12035;49.978;8.298;2023-07-31T13:35:16;27.00;46.60
23713;DHT22;12035;49.978;8.298;2023-07-31T13:40:13;26.90;46.50
23713;DHT22;12035;49.978;8.298;2023-07-31T13:45:10;26.90;46.50
23713;DHT22;12035;49.978;8.298;2023-07-31T13:50:08;26.80;46.80
23713;DHT22;12035;49.978;8.298;2023-07-31T13:55:08;26.70;47.00
23713;DHT22;12035;49.978;8.298;2023-07-31T14:00:06;26.60;47.10
23713;DHT22;12035;49.978;8.298;2023-07-31T14:05:04;26.60;47.20
23713;DHT22;12035;49.978;8.298;2023-07-31T14:10:04;26.50;47.20
23713;DHT22;12035;49.978;8.298;2023-07-31T14:15:03;26.40;47.60
23713;DHT22;12035;49.978;8.298;2023-07-31T14:20:01;26.20;47.80
23713;DHT22;12035;49.978;8.298;2023-07-31T14:24:58;26.20;48.00
23713;DHT22;12035;49.978;8.298;2023-07-31T14:29:56;26.10;48.20
23713;DHT22;12035;49.978;8.298;2023-07-31T14:34:54;26.00;48.40
23713;DHT22;12035;49.978;8.298;2023-07-31T14:39:52;26.00;49.10
23713;DHT22;12035;49.978;8.298;2023-07-31T14:44:49;25.90;48.50
23713;DHT22;12035;49.978;8.298;2023-07-31T14:49:46;25.90;48.40
23713;DHT22;12035;49.978;8.298;2023-07-31T14:54:44;25.90;48.40
23713;DHT22;12035;49.978;8.298;2023-07-31T14:59:42;25.90;48.20
23713;DHT22;12035;49.978;8.298;2023-07-31T15:04:39;25.90;48.30
23713;DHT22;12035;49.978;8.298;2023-07-31T15:09:36;25.90;49.00
23713;DHT22;12035;49.978;8.298;2023-07-31T15:14:34;25.90;48.40
23713;DHT22;12035;49.978;8.298;2023-07-31T15:19:31;25.90;49.00
23713;DHT22;12035;49.978;8.298;2023-07-31T15:24:30;25.90;48.10
23713;DHT22;12035;49.978;8.298;2023-07-31T15:29:27;25.80;48.00
23713;DHT22;12035;49.978;8.298;2023-07-31T15:34:26;25.80;47.70
23713;DHT22;12035;49.978;8.298;2023-07-31T15:39:23;25.80;47.40
23713;DHT22;12035;49.978;8.298;2023-07-31T15:44:20;25.70;47.50
23713;DHT22;12035;49.978;8.298;2023-07-31T15:49:17;25.70;47.60
23713;DHT22;12035;49.978;8.298;2023-07-31T15:54:16;25.60;47.90
23713;DHT22;12035;49.978;8.298;2023-07-31T15:59:14;25.60;48.10
23713;DHT22;12035;49.978;8.298;2023-07-31T16:04:11;25.50;47.90
23713;DHT22;12035;49.978;8.298;2023-07-31T16:09:08;25.50;48.00
23713;DHT22;12035;49.978;8.298;2023-07-31T16:14:07;25.60;48.10
23713;DHT22;12035;49.978;8.298;2023-07-31T16:19:06;25.60;48.20
23713;DHT22;12035;49.978;8.298;2023-07-31T16:24:04;25.50;48.20
23713;DHT22;12035;49.978;8.298;2023-07-31T16:29:01;25.60;48.30
23713;DHT22;12035;49.978;8.298;2023-07-31T16:33:59;25.60;48.40
23713;DHT22;12035;49.978;8.298;2023-07-31T16:38:56;25.50;48.50
23713;DHT22;12035;49.978;8.298;2023-07-31T16:43:53;25.40;48.50
23713;DHT22;12035;49.978;8.298;2023-07-31T16:48:50;25.30;49.30
23713;DHT22;12035;49.978;8.298;2023-07-31T16:53:49;25.20;49.40
23713;DHT22;12035;49.978;8.298;2023-07-31T16:58:46;25.10;50.70
23713;DHT22;12035;49.978;8.298;2023-07-31T17:03:43;25.00;51.10
23713;DHT22;12035;49.978;8.298;2023-07-31T17:08:40;24.90;51.80
23713;DHT22;12035;49.978;8.298;2023-07-31T17:13:39;24.80;51.90
23713;DHT22;12035;49.978;8.298;2023-07-31T17:18:36;24.80;52.20
23713;DHT22;12035;49.978;8.298;2023-07-31T17:23:33;24.70;52.30
23713;DHT22;12035;49.978;8.298;2023-07-31T17:28:30;24.60;52.60
23713;DHT22;12035;49.978;8.298;2023-07-31T17:33:29;24.40;52.70
23713;DHT22;12035;49.978;8.298;2023-07-31T17:38:26;24.30;52.60
23713;DHT22;12035;49.978;8.298;2023-07-31T17:43:23;24.30;52.70
23713;DHT22;12035;49.978;8.298;2023-07-31T17:48:20;24.30;52.70
23713;DHT22;12035;49.978;8.298;2023-07-31T17:53:19;24.30;52.80
23713;DHT22;12035;49.978;8.298;2023-07-31T17:58:16;24.20;52.90
23713;DHT22;12035;49.978;8.298;2023-07-31T18:03:13;24.20;53.00
23713;DHT22;12035;49.978;8.298;2023-07-31T18:08:11;24.20;52.90
23713;DHT22;12035;49.978;8.298;2023-07-31T18:13:09;24.20;53.10
23713;DHT22;12035;49.978;8.298;2023-07-31T18:18:06;24.20;53.10
23713;DHT22;12035;49.978;8.298;2023-07-31T18:23:04;24.10;53.10
23713;DHT22;12035;49.978;8.298;2023-07-31T18:28:01;24.00;53.20
23713;DHT22;12035;49.978;8.298;2023-07-31T18:33:00;24.00;53.50
23713;DHT22;12035;49.978;8.298;2023-07-31T18:37:57;23.90;54.40
23713;DHT22;12035;49.978;8.298;2023-07-31T18:42:54;23.90;53.90
23713;DHT22;12035;49.978;8.298;2023-07-31T18:47:52;23.80;54.00
23713;DHT22;12035;49.978;8.298;2023-07-31T18:52:50;23.80;54.20
23713;DHT22;12035;49.978;8.298;2023-07-31T18:57:48;23.80;54.40
23713;DHT22;12035;49.978;8.298;2023-07-31T19:02:45;23.80;54.60
23713;DHT22;12035;49.978;8.298;2023-07-31T19:07:42;23.70;54.70
23713;DHT22;12035;49.978;8.298;2023-07-31T19:12:41;23.60;55.00
23713;DHT22;12035;49.978;8.298;2023-07-31T19:17:38;23.60;55.00
23713;DHT22;12035;49.978;8.298;2023-07-31T19:22:36;23.50;55.00
23713;DHT22;12035;49.978;8.298;2023-07-31T19:27:33;23.50;55.00
23713;DHT22;12035;49.978;8.298;2023-07-31T19:32:31;23.50;55.00
23713;DHT22;12035;49.978;8.298;2023-07-31T19:37:28;23.50;55.10
23713;DHT22;12035;49.978;8.298;2023-07-31T19:42:26;23.50;55.10
23713;DHT22;12035;49.978;8.298;2023-07-31T19:47:23;23.50;55.20
23713;DHT22;12035;49.978;8.298;2023-07-31T19:52:22;23.50;55.40
23713;DHT22;12035;49.978;8.298;2023-07-31T19:57:20;23.50;55.60
23713;DHT22;12035;49.978;8.298;2023-07-31T20:02:17;23.40;55.60
23713;DHT22;12035;49.978;8.298;2023-07-31T20:07:14;23.50;55.70
23713;DHT22;12035;49.978;8.298;2023-07-31T20:12:12;23.40;55.70
23713;DHT22;12035;49.978;8.298;2023-07-31T20:17:10;23.30;55.90
23713;DHT22;12035;49.978;8.298;2023-07-31T20:22:07;23.30;56.00
23713;DHT22;12035;49.978;8.298;2023-07-31T20:27:04;23.20;56.20
23713;DHT22;12035;49.978;8.298;2023-07-31T20:32:04;23.20;56.50
23713;DHT22;12035;49.978;8.298;2023-07-31T20:37:02;23.20;56.70
23713;DHT22;12035;49.978;8.298;2023-07-31T20:41:59;23.10;56.90
23713;DHT22;12035;49.978;8.298;2023-07-31T20:46:56;23.00;57.90
23713;DHT22;12035;49.978;8.298;2023-07-31T20:51:54;22.90;59.10
23713;DHT22;12035;49.978;8.298;2023-07-31T20:56:51;22.80;59.90
23713;DHT22;12035;49.978;8.298;2023-07-31T21:01:48;22.70;60.30
23713;DHT22;12035;49.978;8.298;2023-07-31T21:06:45;22.60;60.60
23713;DHT22;12035;49.978;8.298;2023-07-31T21:11:44;22.50;61.30
23713;DHT22;12035;49.978;8.298;2023-07-31T21:16:41;22.40;61.80
23713;DHT22;12035;49.978;8.298;2023-07-31T21:21:38;22.40;62.10
23713;DHT22;12035;49.978;8.298;2023-07-31T21:26:35;22.40;62.30
23713;DHT22;12035;49.978;8.298;2023-07-31T21:31:33;22.40;62.50
23713;DHT22;12035;49.978;8.298;2023-07-31T21:36:30;22.40;62.80
23713;DHT22;12035;49.978;8.298;2023-07-31T21:41:27;22.40;62.70
23713;DHT22;12035;49.978;8.298;2023-07-31T21:46:24;22.40;63.10
23713;DHT22;12035;49.978;8.298;2023-07-31T21:51:23;22.40;63.60
23713;DHT22;12035;49.978;8.298;2023-07-31T21:56:20;22.40;64.00
23713;DHT22;12035;49.978;8.298;2023-07-31T22:01:17;22.40;64.10
23713;DHT22;12035;49.978;8.298;2023-07-31T22:06:14;22.40;64.40
23713;DHT22;12035;49.978;8.298;2023-07-31T22:11:12;22.40;64.60
23713;DHT22;12035;49.978;8.298;2023-07-31T22:16:09;22.40;64.90
23713;DHT22;12035;49.978;8.298;2023-07-31T22:21:07;22.40;65.00
23713;DHT22;12035;49.978;8.298;2023-07-31T22:26:04;22.30;65.20
23713;DHT22;12035;49.978;8.298;2023-07-31T22:31:02;22.20;65.60
23713;DHT22;12035;49.978;8.298;2023-07-31T22:35:59;22.20;66.30
23713;DHT22;12035;49.978;8.298;2023-07-31T22:40:56;22.20;66.00
23713;DHT22;12035;49.978;8.298;2023-07-31T22:45:53;22.10;66.40
23713;DHT22;12035;49.978;8.298;2023-07-31T22:50:52;22.10;66.80
23713;DHT22;12035;49.978;8.298;2023-07-31T22:55:49;22.00;67.00
23713;DHT22;12035;49.978;8.298;2023-07-31T23:00:46;21.90;67.10
23713;DHT22;12035;49.978;8.298;2023-07-31T23:05:43;21.90;67.50
23713;DHT22;12035;49.978;8.298;2023-07-31T23:10:47;21.80;68.20
23713;DHT22;12035;49.978;8.298;2023-07-31T23:15:44;21.80;69.40
23713;DHT22;12035;49.978;8.298;2023-07-31T23:20:47;21.70;68.90
23713;DHT22;12035;49.978;8.298;2023-07-31T23:25:47;21.70;69.20
23713;DHT22;12035;49.978;8.298;2023-07-31T23:30:45;21.70;69.90
23713;DHT22;12035;49.978;8.298;2023-07-31T23:35:43;21.70;69.90
23713;DHT22;12035;49.978;8.298;2023-07-31T23:40:40;21.70;70.70
23713;DHT22;12035;49.978;8.298;2023-07-31T23:45:38;21.60;70.80
23713;DHT22;12035;49.978;8.298;2023-07-31T23:50:35;21.50;71.30
23713;DHT22;12035;49.978;8.298;2023-07-31T23:55:32;21.50;71.30
